Погода Левангерна 2 недели

Нур-Трёнделаг, Норвегия

22 июля-04 августа
  • 22июля
    Сегодня
    +14°
    +22°
    Пасмурно, дождь
    ВремяПогодаТемператураВлажностьДавлениеВетер, м/сВероятность осадков
    02:00Облачно с прояснениями+21°C62 %753 мм2.5 м/с1 %
    05:00Облачно с прояснениями+21°C64 %754 мм2.2 м/с5 %
    08:00Облачно с прояснениями+22°C71 %755 мм2.3 м/с14 %
    11:00Пасмурно, небольшой дождь+21°C82 %755 мм2.7 м/с64 %
    14:00Пасмурно, дождь+19°C91 %756 мм1.7 м/с92 %
    17:00Пасмурно, дождь+18°C94 %756 мм0.7 м/с98 %
    20:00Пасмурно, дождь+17°C95 %756 мм0.8 м/с98 %
    23:00Пасмурно, дождь+15°C94 %756 мм3.3 м/с99 %
  • 23июля
    Вторник
    +12°
    +17°
    Пасмурно, дождь
    ВремяПогодаТемператураВлажностьДавлениеВетер, м/сВероятность осадков
    02:00Пасмурно, дождь+15°C92 %757 мм3.1 м/с99 %
    05:00Пасмурно, дождь+14°C92 %757 мм2.6 м/с99 %
    08:00Пасмурно, ливень+15°C89 %757 мм2.5 м/с98 %
    11:00Пасмурно, дождь+15°C89 %758 мм2.3 м/с95 %
    14:00Пасмурно, дождь+16°C86 %758 мм2.9 м/с93 %
    17:00Пасмурно, ливень+16°C85 %759 мм2.7 м/с84 %
    20:00Пасмурно, небольшой дождь+16°C84 %760 мм1.9 м/с66 %
    23:00Пасмурно, сплошная облачность+14°C86 %760 мм1.6 м/с34 %
  • 24июля
    Среда
    +10°
    +19°
    Облачно с прояснениями
    ВремяПогодаТемператураВлажностьДавлениеВетер, м/сВероятность осадков
    02:00Небольшая облачность+13°C88 %761 мм1.8 м/с33 %
    05:00Небольшая облачность+13°C91 %761 мм2.0 м/с40 %
    08:00Облачно с прояснениями+15°C82 %761 мм1.8 м/с48 %
    11:00Облачно с прояснениями+16°C68 %761 мм1.9 м/с49 %
    14:00Облачно с прояснениями+18°C60 %761 мм2.4 м/с35 %
    17:00Пасмурно, сплошная облачность+19°C56 %761 мм3.1 м/с17 %
    20:00Облачно с прояснениями+18°C59 %761 мм3.6 м/с9 %
    23:00Облачно с прояснениями+13°C75 %761 мм2.3 м/с6 %
  • 25июля
    Четверг
    +13°
    +21°
    Небольшая облачность
    ВремяПогодаТемператураВлажностьДавлениеВетер, м/сВероятность осадков
    02:00Облачно с прояснениями+12°C84 %761 мм1.5 м/с4 %
    05:00Небольшая облачность+11°C91 %760 мм0.7 м/с9 %
    08:00Облачно с прояснениями+14°C78 %759 мм1.1 м/с21 %
    11:00Пасмурно, небольшой дождь+16°C71 %758 мм0.7 м/с23 %
    14:00Небольшая облачность+20°C65 %757 мм0.1 м/с20 %
    17:00Ясно и безоблачно+21°C65 %757 мм1.7 м/с7 %
    20:00Небольшая облачность+20°C72 %756 мм1.6 м/с5 %
    23:00Ясно и безоблачно+17°C81 %755 мм0.7 м/с4 %
  • 26июля
    Пятница
    +15°
    +24°
    Небольшая облачность
    ВремяПогодаТемператураВлажностьДавлениеВетер, м/сВероятность осадков
    02:00Облачно с прояснениями+14°C96 %755 мм1.4 м/с2 %
    05:00Облачно с прояснениями+15°C84 %754 мм0.9 м/с4 %
    08:00Облачно с прояснениями+18°C73 %753 мм0.8 м/с5 %
    11:00Облачно с прояснениями+23°C54 %752 мм5.0 м/с7 %
    14:00Небольшая облачность+23°C47 %752 мм4.9 м/с20 %
    17:00Облачно с прояснениями+23°C44 %752 мм3.1 м/с37 %
    20:00Практически безоблачно+21°C60 %752 мм4.0 м/с36 %
    23:00Облачно с прояснениями+17°C82 %753 мм1.5 м/с37 %
Мы используем cookies
Соглашаюсь